Time;durP1;ratioP1;P1;durP2;ratioP2;P2;SDS_P1;SDS_P2;PMS_P1;PMS_P2;Temp;Humidity;BMP_temperature;BMP_pressure;BME280_temperature;BME280_humidity;BME280_pressure;Samples;Min_cycle;Max_cycle;Signal;HPM_P1;HPM_P2
2022/11/23 00:00:00;;;;;;;2.80;0.80;;;17.60;47.60;;;;;;5039654;28;20032;-56
2022/11/23 00:02:26;;;;;;;3.17;1.10;;;17.60;47.60;;;;;;5058008;28;20029;-58
2022/11/23 00:04:52;;;;;;;2.63;0.63;;;17.60;47.70;;;;;;5057230;28;20037;-60
2022/11/23 00:07:18;;;;;;;2.63;0.80;;;17.60;47.70;;;;;;5057306;28;20052;-58
2022/11/23 00:09:44;;;;;;;1.88;0.80;;;17.60;47.70;;;;;;5039511;28;20037;-56
2022/11/23 00:12:09;;;;;;;2.00;0.77;;;17.60;47.60;;;;;;5056894;28;20067;-59
2022/11/23 00:14:35;;;;;;;2.30;0.75;;;17.60;47.70;;;;;;5057153;28;20355;-59
2022/11/23 00:17:01;;;;;;;2.35;0.80;;;17.60;47.70;;;;;;5057007;28;20441;-56
2022/11/23 00:19:27;;;;;;;1.92;0.70;;;17.60;47.70;;;;;;5056474;28;20379;-58
2022/11/23 00:21:53;;;;;;;2.75;1.00;;;17.60;47.70;;;;;;5039652;28;20032;-57
2022/11/23 00:24:18;;;;;;;2.58;0.82;;;17.60;47.70;;;;;;5056478;28;20116;-58
2022/11/23 00:26:44;;;;;;;2.10;0.90;;;17.60;47.80;;;;;;5039298;28;20041;-58
2022/11/23 00:29:10;;;;;;;2.53;0.70;;;17.60;47.80;;;;;;5039023;28;20044;-56
2022/11/23 00:31:38;;;;;;;1.60;0.70;;;17.60;47.80;;;;;;5057091;28;20373;-58
2022/11/23 00:34:06;;;;;;;1.45;0.68;;;17.60;47.80;;;;;;5038871;28;20029;-56
2022/11/23 00:36:31;;;;;;;2.70;1.10;;;17.60;47.80;;;;;;5038973;28;20044;-57
2022/11/23 00:38:59;;;;;;;2.20;1.00;;;17.60;47.80;;;;;;5022359;28;20079;-57
2022/11/23 00:41:26;;;;;;;1.50;0.73;;;17.60;47.90;;;;;;5038928;28;20092;-59
2022/11/23 00:43:52;;;;;;;1.45;0.80;;;17.60;47.90;;;;;;5038767;28;20028;-58
2022/11/23 00:46:20;;;;;;;3.47;0.93;;;17.60;47.90;;;;;;5056461;28;20037;-59
2022/11/23 00:48:48;;;;;;;3.20;0.88;;;17.60;47.90;;;;;;5038545;28;20083;-61
2022/11/23 00:51:23;;;;;;;3.70;1.20;;;17.60;47.90;;;;;;5056718;28;20032;-57
2022/11/23 00:53:50;;;;;;;1.65;0.75;;;17.60;47.90;;;;;;5056147;28;20112;-58
2022/11/23 00:56:17;;;;;;;2.65;0.95;;;17.60;47.90;;;;;;5038401;28;20083;-59
2022/11/23 00:58:48;;;;;;;3.03;0.90;;;17.60;47.90;;;;;;5038033;28;20163;-58
2022/11/23 01:01:15;;;;;;;1.52;0.70;;;17.60;48.00;;;;;;5038625;28;20029;-56
2022/11/23 01:03:48;;;;;;;3.53;0.88;;;17.60;48.60;;;;;;5038411;28;20032;-59
2022/11/23 01:06:20;;;;;;;1.95;0.82;;;17.60;48.00;;;;;;5038484;28;20356;-57
2022/11/23 01:08:50;;;;;;;1.80;0.73;;;17.60;48.00;;;;;;5022068;28;20326;-53
2022/11/23 01:11:16;;;;;;;2.08;0.88;;;17.60;48.00;;;;;;5056116;28;20025;-56
2022/11/23 01:13:42;;;;;;;1.77;0.80;;;17.60;48.00;;;;;;5038231;28;20029;-57
2022/11/23 01:16:20;;;;;;;3.10;1.20;;;17.70;48.10;;;;;;5022235;28;20466;-58
2022/11/23 01:18:46;;;;;;;3.00;0.98;;;17.60;48.00;;;;;;5055364;28;20049;-56
2022/11/23 01:21:12;;;;;;;3.00;1.13;;;17.60;48.00;;;;;;5038431;28;20116;-58
2022/11/23 01:23:38;;;;;;;2.60;1.10;;;17.60;48.00;;;;;;5038804;28;20068;-57
2022/11/23 01:26:07;;;;;;;2.55;0.95;;;17.60;48.10;;;;;;5038110;28;20032;-56
2022/11/23 01:28:33;;;;;;;2.97;0.90;;;17.60;48.10;;;;;;5055276;28;20568;-59
2022/11/23 01:31:03;;;;;;;2.65;1.15;;;17.60;48.10;;;;;;5038073;28;20064;-58
2022/11/23 01:33:29;;;;;;;2.65;1.00;;;17.60;48.00;;;;;;5038333;28;20490;-58
2022/11/23 01:35:55;;;;;;;1.88;0.73;;;17.60;48.10;;;;;;5037766;28;20028;-57
2022/11/23 01:38:21;;;;;;;2.75;0.90;;;17.70;48.10;;;;;;5054929;28;20032;-58
2022/11/23 01:40:48;;;;;;;1.92;0.88;;;17.70;48.10;;;;;;5037718;28;20032;-58
2022/11/23 01:43:17;;;;;;;3.20;1.10;;;17.70;48.10;;;;;;5021175;28;20032;-59
2022/11/23 01:46:03;;;;;;;2.28;0.80;;;17.70;48.10;;;;;;5055317;28;20041;-58
2022/11/23 01:48:45;;;;;;;3.50;1.38;;;17.70;48.20;;;;;;5055019;28;20120;-60
2022/11/23 01:51:26;;;;;;;3.00;1.05;;;17.70;48.20;;;;;;5037231;28;20033;-56
2022/11/23 01:53:56;;;;;;;2.90;1.20;;;17.60;48.10;;;;;;5055697;28;20051;-56
2022/11/23 01:56:29;;;;;;;2.65;1.00;;;17.70;48.20;;;;;;5037405;28;20028;-54
2022/11/23 01:58:57;;;;;;;4.13;1.08;;;17.70;48.20;;;;;;5037261;28;20040;-59
2022/11/23 02:01:23;;;;;;;2.90;1.00;;;17.70;48.10;;;;;;5021096;28;20037;-60
2022/11/23 02:03:52;;;;;;;2.90;1.10;;;17.60;48.10;;;;;;5054866;28;20039;-58
2022/11/23 02:06:20;;;;;;;3.40;0.93;;;17.60;48.10;;;;;;5054849;28;20047;-55
2022/11/23 02:08:47;;;;;;;3.35;1.05;;;17.70;48.20;;;;;;5036834;28;20033;-57
2022/11/23 02:11:15;;;;;;;3.40;1.10;;;17.60;48.10;;;;;;5037285;28;20028;-58
2022/11/23 02:13:44;;;;;;;2.50;0.95;;;17.60;48.10;;;;;;5036909;28;20037;-57
2022/11/23 02:16:10;;;;;;;1.92;0.90;;;17.70;48.10;;;;;;5054691;28;20433;-58
2022/11/23 02:18:41;;;;;;;2.63;0.82;;;17.60;48.10;;;;;;5037346;28;20049;-58
2022/11/23 02:21:09;;;;;;;2.33;1.00;;;17.60;48.10;;;;;;5036629;28;20083;-58
2022/11/23 02:23:45;;;;;;;2.58;1.10;;;17.70;48.10;;;;;;5036958;28;20044;-57
2022/11/23 02:26:16;;;;;;;2.17;0.98;;;17.60;48.10;;;;;;5037052;28;20025;-57
2022/11/23 02:29:08;;;;;;;2.20;0.88;;;17.60;48.10;;;;;;5037115;28;20329;-56
2022/11/23 02:31:34;;;;;;;3.05;1.15;;;17.70;48.10;;;;;;5033320;28;20095;-53
2022/11/23 02:34:01;;;;;;;3.03;0.82;;;17.60;48.00;;;;;;5037050;28;20060;-55
2022/11/23 02:36:42;;;;;;;2.42;0.85;;;17.70;48.00;;;;;;5020187;28;20036;-59
2022/11/23 02:39:21;;;;;;;2.42;0.88;;;17.70;48.00;;;;;;5037252;28;20045;-57
2022/11/23 02:41:50;;;;;;;2.85;0.90;;;17.70;48.00;;;;;;5020535;28;20483;-56
2022/11/23 02:44:50;;;;;;;3.67;1.02;;;17.60;47.90;;;;;;5036947;28;20025;-58
2022/11/23 02:47:16;;;;;;;3.67;1.30;;;17.70;48.00;;;;;;5036718;28;20037;-59
2022/11/23 02:49:46;;;;;;;2.70;0.90;;;17.60;47.90;;;;;;5054529;28;20041;-55
2022/11/23 02:52:12;;;;;;;3.85;1.08;;;17.60;47.90;;;;;;5054953;28;20104;-59
2022/11/23 02:54:38;;;;;;;8.27;1.27;;;17.70;47.90;;;;;;5037051;28;20029;-58
2022/11/23 02:57:05;;;;;;;2.35;0.93;;;17.60;47.80;;;;;;5020330;28;20029;-57
2022/11/23 02:59:32;;;;;;;1.88;0.80;;;17.70;47.90;;;;;;5020116;28;20025;-59
2022/11/23 03:02:00;;;;;;;2.40;1.23;;;17.70;47.80;;;;;;5020515;28;20511;-58
2022/11/23 03:04:28;;;;;;;2.25;0.82;;;17.70;47.80;;;;;;5054356;28;20061;-60
2022/11/23 03:06:55;;;;;;;3.72;1.10;;;17.60;47.70;;;;;;5036343;28;20059;-57
2022/11/23 03:09:21;;;;;;;3.88;1.00;;;17.70;47.70;;;;;;5036911;28;20473;-59
2022/11/23 03:11:47;;;;;;;2.22;0.80;;;17.70;47.70;;;;;;5019902;28;20025;-58
2022/11/23 03:14:13;;;;;;;3.30;1.02;;;17.70;47.70;;;;;;5036707;28;20154;-57
2022/11/23 03:16:46;;;;;;;3.13;1.00;;;17.60;47.60;;;;;;5037158;28;20377;-57
2022/11/23 03:19:15;;;;;;;3.42;1.20;;;17.70;47.70;;;;;;5056799;28;20049;-58
2022/11/23 03:21:41;;;;;;;3.15;1.05;;;17.60;47.60;;;;;;5024207;28;20029;-57
2022/11/23 03:24:07;;;;;;;2.30;1.08;;;17.70;47.70;;;;;;5023686;28;20079;-56
2022/11/23 03:26:34;;;;;;;2.40;0.85;;;17.70;47.60;;;;;;5040081;28;20090;-57
2022/11/23 03:29:08;;;;;;;3.08;1.02;;;17.70;47.60;;;;;;5040166;28;20032;-55
2022/11/23 03:31:34;;;;;;;3.40;1.08;;;17.60;47.60;;;;;;5039869;28;20035;-54
2022/11/23 03:34:00;;;;;;;2.10;0.80;;;17.70;47.60;;;;;;5058248;28;20064;-58
2022/11/23 03:36:29;;;;;;;3.05;0.95;;;17.70;47.60;;;;;;5040188;28;20029;-57
2022/11/23 03:38:55;;;;;;;1.85;0.77;;;17.60;47.50;;;;;;5040359;28;20116;-55
2022/11/23 03:41:34;;;;;;;5.93;1.20;;;17.60;47.60;;;;;;5040082;28;20072;-57
2022/11/23 03:44:00;;;;;;;3.75;1.30;;;17.60;47.50;;;;;;5040019;28;20057;-54
2022/11/23 03:46:26;;;;;;;2.95;1.08;;;17.70;47.50;;;;;;5039411;28;20065;-54
2022/11/23 03:48:52;;;;;;;2.65;1.02;;;17.70;47.50;;;;;;5039895;28;20033;-58
2022/11/23 03:51:18;;;;;;;1.83;0.90;;;17.70;47.60;;;;;;5039766;28;20116;-59
2022/11/23 03:53:44;;;;;;;4.20;1.15;;;17.70;47.60;;;;;;5057738;28;20121;-54
2022/11/23 03:56:10;;;;;;;2.30;0.80;;;17.70;47.50;;;;;;5039977;28;20029;-56
2022/11/23 03:58:40;;;;;;;3.72;1.10;;;17.70;47.50;;;;;;5040269;28;20344;-58
2022/11/23 04:01:10;;;;;;;3.75;0.90;;;17.70;47.50;;;;;;5040082;28;20321;-56
2022/11/23 04:03:37;;;;;;;2.15;0.90;;;17.70;47.50;;;;;;5039470;28;20029;-58
2022/11/23 04:06:08;;;;;;;4.38;1.27;;;17.70;48.10;;;;;;5057089;28;20041;-59
2022/11/23 04:08:52;;;;;;;2.65;1.00;;;17.70;47.50;;;;;;5057473;28;20406;-59
2022/11/23 04:11:29;;;;;;;2.75;1.00;;;17.70;47.50;;;;;;5039523;28;20032;-59
2022/11/23 04:13:56;;;;;;;4.85;0.93;;;17.70;47.50;;;;;;5022580;28;20035;-59
2022/11/23 04:16:22;;;;;;;4.70;1.33;;;17.70;47.50;;;;;;5039324;28;20025;-56
2022/11/23 04:18:48;;;;;;;5.28;1.25;;;17.70;47.50;;;;;;5039016;28;20080;-60
2022/11/23 04:21:15;;;;;;;3.63;1.10;;;17.70;47.50;;;;;;5023297;28;20029;-57
2022/11/23 04:23:42;;;;;;;3.17;1.02;;;17.70;47.50;;;;;;5022959;28;20033;-57
2022/11/23 04:26:10;;;;;;;1.77;0.82;;;17.70;47.50;;;;;;5039354;28;20062;-59
2022/11/23 04:28:39;;;;;;;4.68;1.15;;;17.70;47.50;;;;;;5039352;28;20033;-59
2022/11/23 04:31:05;;;;;;;2.55;1.00;;;17.70;47.50;;;;;;5038070;28;20127;-60
2022/11/23 04:33:41;;;;;;;2.60;1.02;;;17.70;47.40;;;;;;5038893;28;20341;-58
2022/11/23 04:36:07;;;;;;;2.33;0.90;;;17.70;47.50;;;;;;5039215;28;20159;-56
2022/11/23 04:38:34;;;;;;;2.17;0.80;;;17.70;47.50;;;;;;5022552;28;20514;-56
2022/11/23 04:41:00;;;;;;;2.92;0.90;;;17.70;48.10;;;;;;5039195;28;20025;-58
2022/11/23 04:43:26;;;;;;;2.83;0.95;;;17.70;47.50;;;;;;5039033;28;20033;-53
2022/11/23 04:45:53;;;;;;;1.92;0.85;;;17.70;47.40;;;;;;5038716;28;20041;-56
2022/11/23 04:48:24;;;;;;;2.22;0.80;;;17.70;47.40;;;;;;5039130;28;20067;-55
2022/11/23 04:50:52;;;;;;;2.40;0.95;;;17.70;47.50;;;;;;5022979;28;20074;-58
2022/11/23 04:53:24;;;;;;;2.63;1.00;;;17.70;47.40;;;;;;5038825;28;20096;-59
2022/11/23 04:55:50;;;;;;;3.53;1.00;;;17.70;47.40;;;;;;5022502;28;20091;-54
2022/11/23 04:58:16;;;;;;;3.78;1.13;;;17.70;47.40;;;;;;5038659;28;20062;-55
2022/11/23 05:00:42;;;;;;;2.80;0.90;;;17.70;47.40;;;;;;5038385;28;20029;-55
2022/11/23 05:03:10;;;;;;;3.55;1.08;;;17.70;47.40;;;;;;5038658;28;20033;-58
2022/11/23 05:05:39;;;;;;;3.10;1.00;;;17.70;47.30;;;;;;5039046;28;20087;-59
2022/11/23 05:08:07;;;;;;;3.50;1.00;;;17.70;47.30;;;;;;5038573;28;20041;-56
2022/11/23 05:10:51;;;;;;;3.17;1.05;;;17.70;47.30;;;;;;5038372;28;20342;-57
2022/11/23 05:13:17;;;;;;;2.75;1.00;;;17.70;47.30;;;;;;5038409;28;20029;-59
2022/11/23 05:15:44;;;;;;;4.88;1.30;;;17.70;47.30;;;;;;5038139;28;20032;-54
2022/11/23 05:18:14;;;;;;;2.33;0.80;;;17.70;47.30;;;;;;5034626;28;20045;-58
2022/11/23 05:20:40;;;;;;;2.95;0.85;;;17.70;47.30;;;;;;5035020;28;20112;-57
2022/11/23 05:23:07;;;;;;;2.40;0.77;;;17.70;47.30;;;;;;5035264;28;20416;-58
2022/11/23 05:25:34;;;;;;;2.80;1.25;;;17.70;47.30;;;;;;5034720;28;20156;-58
2022/11/23 05:28:03;;;;;;;2.30;1.00;;;17.70;47.20;;;;;;5034472;28;20111;-57
2022/11/23 05:30:29;;;;;;;2.85;1.00;;;17.70;47.20;;;;;;5034476;28;20100;-59
2022/11/23 05:33:02;;;;;;;3.40;1.10;;;17.70;47.20;;;;;;5034909;28;20037;-52
2022/11/23 05:35:29;;;;;;;3.30;0.82;;;17.70;47.20;;;;;;5034701;28;20030;-58
2022/11/23 05:37:55;;;;;;;3.78;1.25;;;17.70;47.80;;;;;;5034411;28;20037;-57
2022/11/23 05:40:21;;;;;;;2.70;0.85;;;17.70;47.20;;;;;;5034926;28;20099;-57
2022/11/23 05:42:58;;;;;;;5.30;0.95;;;17.70;47.20;;;;;;5033261;28;20066;-58
2022/11/23 05:45:25;;;;;;;4.45;1.25;;;17.70;47.10;;;;;;5035147;28;20344;-56
2022/11/23 05:47:55;;;;;;;2.92;0.98;;;17.70;47.10;;;;;;5034531;28;20049;-58
2022/11/23 05:50:30;;;;;;;3.92;1.00;;;17.70;47.10;;;;;;5034261;28;20037;-57
2022/11/23 05:53:20;;;;;;;2.92;1.02;;;17.70;47.10;;;;;;5029651;28;20456;-56
2022/11/23 05:55:51;;;;;;;3.08;1.05;;;17.70;47.10;;;;;;5034634;28;20116;-55
2022/11/23 05:58:18;;;;;;;3.58;1.02;;;17.70;47.00;;;;;;5033903;28;20033;-59
2022/11/23 06:00:44;;;;;;;2.25;0.70;;;17.70;47.10;;;;;;5017659;28;20033;-57
2022/11/23 06:03:10;;;;;;;3.60;1.08;;;17.70;47.00;;;;;;5033820;28;20096;-55
2022/11/23 06:05:36;;;;;;;3.30;1.02;;;17.70;47.00;;;;;;5018183;28;20436;-56
2022/11/23 06:08:02;;;;;;;3.33;1.10;;;17.70;47.00;;;;;;5034032;28;20102;-58
2022/11/23 06:10:27;;;;;;;2.97;0.98;;;17.70;47.00;;;;;;5034889;28;20064;-59
2022/11/23 06:13:01;;;;;;;3.17;1.15;;;17.70;47.00;;;;;;5017813;28;20105;-58
2022/11/23 06:15:27;;;;;;;2.67;1.23;;;17.70;47.00;;;;;;5017277;28;20041;-55
2022/11/23 06:17:52;;;;;;;3.60;1.33;;;17.70;47.00;;;;;;5033480;28;20045;-57
2022/11/23 06:20:20;;;;;;;4.75;1.17;;;17.70;47.00;;;;;;5034065;28;20025;-52
2022/11/23 06:22:55;;;;;;;3.53;0.90;;;17.70;47.00;;;;;;5019126;28;20033;-58
2022/11/23 06:25:23;;;;;;;2.63;1.00;;;17.70;47.00;;;;;;5033863;28;20029;-59
2022/11/23 06:27:58;;;;;;;4.00;1.30;;;17.70;47.00;;;;;;5033515;28;20038;-57
2022/11/23 06:30:29;;;;;;;3.28;1.15;;;17.70;47.00;;;;;;5034245;28;20033;-58
2022/11/23 06:33:04;;;;;;;3.38;1.27;;;17.70;47.00;;;;;;5018202;28;20033;-58
2022/11/23 06:35:33;;;;;;;3.45;1.10;;;17.70;47.00;;;;;;5033885;28;20030;-58
2022/11/23 06:37:59;;;;;;;3.78;1.20;;;17.70;46.90;;;;;;5033655;28;20036;-55
2022/11/23 06:40:24;;;;;;;2.92;1.20;;;17.70;46.90;;;;;;5033590;28;20034;-59
2022/11/23 06:42:57;;;;;;;3.10;1.08;;;17.70;46.90;;;;;;5034206;28;20045;-58
2022/11/23 06:45:30;;;;;;;3.47;1.10;;;17.70;46.90;;;;;;5033773;28;20053;-57
2022/11/23 06:48:00;;;;;;;4.20;1.45;;;17.70;46.90;;;;;;5033681;28;20048;-54
2022/11/23 06:50:26;;;;;;;4.03;1.20;;;17.70;46.90;;;;;;5033560;28;20498;-59
2022/11/23 06:52:55;;;;;;;4.22;1.17;;;17.70;46.90;;;;;;5033583;28;20353;-57
2022/11/23 06:55:26;;;;;;;3.63;1.10;;;17.70;46.80;;;;;;5038382;28;20055;-59
2022/11/23 06:57:52;;;;;;;3.42;1.15;;;17.70;46.80;;;;;;5021170;28;20297;-58
2022/11/23 07:00:19;;;;;;;3.70;1.55;;;17.70;46.80;;;;;;5037929;28;20029;-56
2022/11/23 07:02:53;;;;;;;3.60;1.33;;;17.70;46.80;;;;;;5037437;28;20464;-59
2022/11/23 07:05:22;;;;;;;4.72;1.33;;;17.70;46.80;;;;;;5037325;28;20475;-59
2022/11/23 07:07:47;;;;;;;3.80;1.10;;;17.70;46.70;;;;;;5020406;28;20444;-59
2022/11/23 07:10:20;;;;;;;4.43;1.38;;;17.70;46.70;;;;;;5037322;28;20036;-58
2022/11/23 07:12:53;;;;;;;4.30;1.35;;;17.70;46.70;;;;;;5037344;28;20403;-59
2022/11/23 07:15:20;;;;;;;3.78;1.30;;;17.70;46.60;;;;;;5037191;28;20072;-57
2022/11/23 07:17:46;;;;;;;3.30;1.33;;;17.70;46.60;;;;;;5039376;28;20334;-58
2022/11/23 07:20:13;;;;;;;4.15;1.55;;;17.70;46.60;;;;;;5040219;28;20025;-58
2022/11/23 07:22:39;;;;;;;4.10;1.40;;;17.70;46.50;;;;;;5040649;28;20065;-57
2022/11/23 07:25:05;;;;;;;4.57;1.38;;;17.70;46.50;;;;;;5058232;28;20032;-56
2022/11/23 07:27:31;;;;;;;3.92;1.30;;;17.70;46.50;;;;;;5057763;28;20102;-56
2022/11/23 07:29:57;;;;;;;5.38;1.50;;;17.70;46.50;;;;;;5039834;28;20025;-58
2022/11/23 07:32:23;;;;;;;4.07;1.23;;;17.70;46.40;;;;;;5058223;28;20025;-56
2022/11/23 07:34:48;;;;;;;2.78;1.05;;;17.70;46.40;;;;;;5040148;28;20056;-57
2022/11/23 07:37:15;;;;;;;5.78;1.58;;;17.80;46.50;;;;;;5039884;28;20502;-52
2022/11/23 07:39:43;;;;;;;4.15;1.35;;;17.70;46.40;;;;;;5039811;28;20032;-59
2022/11/23 07:42:09;;;;;;;3.50;1.38;;;17.70;46.30;;;;;;5023349;28;20033;-57
2022/11/23 07:44:37;;;;;;;5.35;1.67;;;17.70;46.30;;;;;;5057861;28;20033;-56
2022/11/23 07:47:07;;;;;;;5.43;1.60;;;17.70;46.30;;;;;;5039675;28;20044;-57
2022/11/23 07:49:33;;;;;;;3.17;1.17;;;17.70;46.30;;;;;;5057141;28;20033;-58
2022/11/23 07:51:58;;;;;;;3.55;1.20;;;17.70;46.30;;;;;;5057236;28;20111;-57
2022/11/23 07:54:24;;;;;;;3.30;1.25;;;17.70;46.30;;;;;;5057272;28;20037;-57
2022/11/23 07:56:50;;;;;;;4.45;1.33;;;17.80;46.40;;;;;;5057275;28;20118;-59
2022/11/23 07:59:16;;;;;;;4.88;1.30;;;17.70;46.30;;;;;;5039681;28;20528;-58
2022/11/23 08:01:41;;;;;;;4.45;1.20;;;17.70;46.30;;;;;;5058104;28;20085;-57
2022/11/23 08:04:07;;;;;;;3.65;1.15;;;17.70;46.30;;;;;;5056935;28;20041;-56
2022/11/23 08:06:33;;;;;;;2.53;1.08;;;17.80;46.30;;;;;;5038528;28;20095;-59
2022/11/23 08:08:59;;;;;;;5.88;1.83;;;17.70;46.30;;;;;;5057057;28;20445;-59
2022/11/23 08:11:25;;;;;;;5.35;1.35;;;17.80;46.40;;;;;;5056878;28;20033;-57
2022/11/23 08:13:50;;;;;;;6.60;1.30;;;17.70;46.40;;;;;;5056930;28;20037;-58
2022/11/23 08:16:17;;;;;;;4.85;1.48;;;17.70;46.40;;;;;;5056940;28;20095;-58
2022/11/23 08:18:43;;;;;;;5.15;1.52;;;17.70;46.50;;;;;;5057023;28;20449;-56
2022/11/23 08:21:09;;;;;;;3.03;1.20;;;17.80;46.50;;;;;;5038982;28;20033;-55
2022/11/23 08:23:34;;;;;;;6.35;1.50;;;17.80;46.50;;;;;;5056783;28;20064;-57
2022/11/23 08:26:02;;;;;;;3.30;1.30;;;17.80;46.60;;;;;;5056941;28;20037;-56
2022/11/23 08:28:28;;;;;;;3.50;1.27;;;17.70;46.50;;;;;;5056746;28;20128;-56
2022/11/23 08:30:54;;;;;;;2.67;1.17;;;17.80;46.60;;;;;;5056671;28;20468;-55
2022/11/23 08:33:20;;;;;;;4.68;1.60;;;17.70;46.50;;;;;;5038934;28;20071;-56
2022/11/23 08:35:46;;;;;;;4.97;1.50;;;17.70;46.50;;;;;;5039002;28;20064;-56
2022/11/23 08:38:12;;;;;;;5.90;1.35;;;17.70;46.50;;;;;;5056947;28;20040;-58
2022/11/23 08:40:38;;;;;;;3.22;0.90;;;17.70;46.50;;;;;;5038850;28;20033;-58
2022/11/23 08:43:04;;;;;;;3.83;1.20;;;17.70;46.50;;;;;;5056278;28;20056;-59
2022/11/23 08:45:30;;;;;;;5.28;1.52;;;17.70;46.50;;;;;;5056377;28;20033;-58
2022/11/23 08:48:00;;;;;;;3.10;1.33;;;17.80;46.60;;;;;;5056183;28;20040;-59
2022/11/23 08:50:28;;;;;;;3.53;1.42;;;17.80;46.50;;;;;;5056326;28;20037;-56
2022/11/23 08:52:55;;;;;;;3.95;1.42;;;17.80;46.50;;;;;;5056339;28;20456;-58
2022/11/23 08:55:21;;;;;;;2.88;1.25;;;17.80;46.70;;;;;;5056240;28;20083;-57
2022/11/23 08:57:47;;;;;;;3.65;1.10;;;17.80;46.50;;;;;;5056414;28;20033;-55
2022/11/23 09:00:13;;;;;;;4.93;1.30;;;17.80;46.50;;;;;;5056278;28;20032;-58
2022/11/23 09:02:40;;;;;;;5.65;1.60;;;17.80;46.40;;;;;;5056096;28;20448;-59
2022/11/23 09:05:06;;;;;;;2.85;1.17;;;17.80;46.40;;;;;;5056022;28;20036;-53
2022/11/23 09:07:32;;;;;;;5.00;1.45;;;17.80;46.40;;;;;;5038090;28;20518;-55
2022/11/23 09:09:58;;;;;;;3.13;1.52;;;17.80;46.30;;;;;;5055811;28;20032;-58
2022/11/23 09:12:23;;;;;;;4.43;1.20;;;17.80;46.30;;;;;;5038494;28;20024;-58
2022/11/23 09:14:49;;;;;;;5.68;1.40;;;17.80;46.30;;;;;;5056040;28;20104;-53
2022/11/23 09:17:15;;;;;;;2.60;1.08;;;17.80;46.20;;;;;;5056025;28;20028;-55
2022/11/23 09:19:41;;;;;;;4.55;1.65;;;17.80;46.20;;;;;;5055773;28;20313;-58
2022/11/23 09:22:07;;;;;;;3.42;1.10;;;17.80;46.10;;;;;;5055992;28;20029;-54
2022/11/23 09:24:32;;;;;;;3.40;1.15;;;17.80;46.10;;;;;;5021575;28;20056;-58
2022/11/23 09:26:58;;;;;;;4.60;1.50;;;17.80;46.00;;;;;;5037820;28;20044;-55
2022/11/23 09:29:24;;;;;;;3.90;1.20;;;17.80;45.90;;;;;;5055406;28;20040;-57
2022/11/23 09:31:50;;;;;;;5.45;1.45;;;17.80;45.90;;;;;;5055626;28;20036;-59
2022/11/23 09:34:16;;;;;;;4.28;1.40;;;17.90;45.90;;;;;;5037829;28;20356;-59
2022/11/23 09:36:42;;;;;;;5.22;1.30;;;17.80;45.70;;;;;;5055956;28;20048;-57
2022/11/23 09:39:07;;;;;;;2.78;0.90;;;17.90;45.70;;;;;;5055074;28;20037;-57
2022/11/23 09:41:48;;;;;;;6.13;1.67;;;17.90;45.60;;;;;;5056142;28;20043;-56
2022/11/23 09:44:23;;;;;;;3.83;1.42;;;17.90;45.50;;;;;;5055262;28;20360;-58
2022/11/23 09:47:18;;;;;;;3.88;1.45;;;17.90;45.50;;;;;;5055393;28;20463;-55
2022/11/23 09:49:55;;;;;;;4.38;1.10;;;17.90;45.40;;;;;;5037705;28;20036;-57
2022/11/23 09:52:23;;;;;;;5.15;1.30;;;17.90;45.40;;;;;;5055035;28;20344;-57
2022/11/23 09:54:54;;;;;;;3.80;1.30;;;17.90;45.30;;;;;;5054847;28;20031;-56
2022/11/23 09:57:24;;;;;;;5.10;1.38;;;17.90;45.20;;;;;;5054998;28;20043;-58
2022/11/23 10:00:03;;;;;;;4.28;1.15;;;17.90;45.20;;;;;;5037524;28;20033;-56
2022/11/23 10:02:34;;;;;;;5.60;1.60;;;17.90;45.10;;;;;;5054704;28;20043;-58
2022/11/23 10:05:02;;;;;;;5.13;1.27;;;17.90;45.10;;;;;;5054836;28;20043;-57
2022/11/23 10:07:31;;;;;;;5.38;1.30;;;17.90;45.00;;;;;;5055237;28;20037;-58
2022/11/23 10:10:09;;;;;;;4.55;1.30;;;17.90;45.00;;;;;;5054874;28;20029;-56
2022/11/23 10:12:49;;;;;;;4.05;1.10;;;17.90;44.90;;;;;;5036919;28;20036;-55
2022/11/23 10:15:23;;;;;;;3.55;1.27;;;17.90;44.80;;;;;;5055460;28;20061;-61
2022/11/23 10:18:12;;;;;;;4.28;1.33;;;17.90;44.70;;;;;;5054294;28;20503;-54
2022/11/23 10:20:46;;;;;;;3.28;0.95;;;17.90;44.60;;;;;;5055171;28;20033;-59
2022/11/23 10:23:45;;;;;;;3.00;1.00;;;18.00;44.70;;;;;;5054669;28;20029;-58
2022/11/23 10:26:17;;;;;;;4.88;1.30;;;18.00;44.70;;;;;;5054917;28;20037;-55
2022/11/23 10:28:45;;;;;;;3.05;0.90;;;18.00;44.70;;;;;;5053927;28;20052;-56
2022/11/23 10:31:17;;;;;;;3.17;1.00;;;17.90;44.60;;;;;;5037297;28;20032;-55
2022/11/23 10:34:07;;;;;;;4.15;1.13;;;18.00;44.60;;;;;;5036930;28;20033;-57
2022/11/23 10:36:35;;;;;;;4.15;1.13;;;18.00;44.60;;;;;;5054748;28;20104;-58
2022/11/23 10:39:01;;;;;;;3.90;1.30;;;18.00;45.10;;;;;;5054840;28;20052;-53
2022/11/23 10:41:29;;;;;;;3.67;1.08;;;18.00;44.50;;;;;;5054499;28;20116;-58
2022/11/23 10:44:11;;;;;;;4.35;1.55;;;18.00;44.40;;;;;;5054595;28;20029;-55
2022/11/23 10:46:39;;;;;;;4.15;1.10;;;18.00;44.40;;;;;;5036707;28;20036;-58
2022/11/23 10:49:25;;;;;;;3.05;1.00;;;18.00;44.30;;;;;;5054098;28;20403;-54
2022/11/23 10:52:02;;;;;;;4.63;1.02;;;18.00;44.30;;;;;;5054225;28;20029;-59
2022/11/23 10:54:46;;;;;;;2.50;1.15;;;18.00;44.20;;;;;;5054110;28;20029;-59
2022/11/23 10:57:32;;;;;;;3.77;1.13;;;18.00;44.20;;;;;;5054926;28;20056;-55
2022/11/23 11:00:00;;;;;;;4.70;1.30;;;18.00;44.10;;;;;;5054305;28;20059;-58
2022/11/23 11:02:27;;;;;;;6.18;1.48;;;18.00;44.10;;;;;;5054275;28;20494;-58
2022/11/23 11:05:21;;;;;;;3.97;1.17;;;18.00;44.10;;;;;;5036397;28;20464;-55
2022/11/23 11:07:47;;;;;;;2.58;1.17;;;18.00;44.10;;;;;;5054243;28;20393;-56
2022/11/23 11:10:40;;;;;;;3.65;1.02;;;18.00;44.00;;;;;;5036580;28;20044;-58
2022/11/23 11:13:38;;;;;;;3.30;1.10;;;18.10;44.00;;;;;;5054666;28;20040;-55
2022/11/23 11:16:16;;;;;;;4.57;1.38;;;18.10;44.00;;;;;;5036470;28;20033;-59
2022/11/23 11:18:42;;;;;;;2.88;0.90;;;18.10;44.00;;;;;;5054179;28;20448;-59
2022/11/23 11:21:39;;;;;;;2.95;0.93;;;18.10;43.90;;;;;;5053521;28;20074;-58
2022/11/23 11:24:13;;;;;;;4.95;0.90;;;18.10;43.90;;;;;;5054044;28;20029;-59
2022/11/23 11:26:50;;;;;;;3.47;1.25;;;18.10;43.90;;;;;;5054384;28;20021;-56
2022/11/23 11:29:30;;;;;;;3.30;1.10;;;18.10;43.90;;;;;;5054224;28;20094;-54
2022/11/23 11:32:11;;;;;;;4.25;1.17;;;18.10;43.80;;;;;;5054063;28;20025;-56
2022/11/23 11:34:46;;;;;;;2.83;0.82;;;18.10;43.80;;;;;;5036404;28;20098;-61
2022/11/23 11:37:35;;;;;;;3.55;1.20;;;18.10;43.80;;;;;;5054568;28;20037;-57
2022/11/23 11:40:16;;;;;;;3.08;1.02;;;18.10;43.80;;;;;;5056283;28;20028;-56
2022/11/23 11:43:12;;;;;;;2.42;1.10;;;18.10;43.70;;;;;;5058175;28;20044;-55
2022/11/23 11:45:44;;;;;;;2.85;1.00;;;18.10;43.70;;;;;;5057493;28;20106;-59
2022/11/23 11:48:21;;;;;;;2.80;1.00;;;18.10;43.70;;;;;;5057633;28;20396;-58
2022/11/23 11:51:00;;;;;;;2.97;1.08;;;18.10;43.70;;;;;;5023537;28;20061;-60
2022/11/23 11:53:58;;;;;;;3.78;1.00;;;18.10;43.60;;;;;;5057442;28;20029;-59
2022/11/23 11:56:44;;;;;;;2.60;1.00;;;18.10;43.60;;;;;;5057292;28;20071;-55
2022/11/23 11:59:21;;;;;;;3.38;0.85;;;18.20;44.30;;;;;;5039779;28;20124;-57
2022/11/23 12:01:54;;;;;;;4.07;1.38;;;18.20;43.60;;;;;;5057828;28;20069;-58
2022/11/23 12:04:38;;;;;;;4.68;1.08;;;18.20;43.60;;;;;;5057281;28;20036;-59
2022/11/23 12:07:16;;;;;;;4.00;1.00;;;18.20;43.60;;;;;;5056940;28;20124;-59
2022/11/23 12:09:48;;;;;;;2.22;0.70;;;18.20;43.60;;;;;;5057163;28;20025;-58
2022/11/23 12:12:18;;;;;;;4.05;0.90;;;18.20;43.50;;;;;;5057641;28;20118;-59
2022/11/23 12:14:45;;;;;;;2.17;0.70;;;18.20;43.60;;;;;;5057518;28;20045;-60
2022/11/23 12:17:38;;;;;;;2.55;1.08;;;18.20;43.50;;;;;;5039320;28;20342;-55
2022/11/23 12:20:33;;;;;;;3.25;1.02;;;18.20;43.50;;;;;;5056842;28;20041;-60
2022/11/23 12:23:15;;;;;;;2.90;0.90;;;18.20;43.40;;;;;;5039242;28;20349;-57
2022/11/23 12:25:51;;;;;;;2.97;1.10;;;18.20;43.40;;;;;;5056987;28;20029;-57
2022/11/23 12:28:28;;;;;;;3.28;0.90;;;18.30;43.40;;;;;;5057008;28;20040;-60
2022/11/23 12:31:25;;;;;;;2.58;0.98;;;18.20;43.30;;;;;;5056945;28;20029;-57
2022/11/23 12:34:05;;;;;;;2.65;1.10;;;18.30;43.30;;;;;;5056730;28;20044;-60
2022/11/23 12:36:52;;;;;;;3.20;0.80;;;18.20;43.20;;;;;;5022686;28;20044;-56
2022/11/23 12:39:33;;;;;;;4.07;1.10;;;18.20;43.20;;;;;;5056380;28;20059;-60
2022/11/23 12:42:15;;;;;;;2.75;0.93;;;18.20;43.20;;;;;;5056494;28;20040;-58
2022/11/23 12:44:59;;;;;;;2.85;1.10;;;18.20;43.10;;;;;;5056863;28;20036;-58
2022/11/23 12:47:36;;;;;;;1.52;0.65;;;18.30;43.10;;;;;;5056851;28;20102;-58
2022/11/23 12:50:29;;;;;;;2.83;1.15;;;18.30;43.10;;;;;;5056708;28;20429;-58
2022/11/23 12:53:00;;;;;;;2.92;0.75;;;18.30;43.10;;;;;;5038524;28;20100;-60
2022/11/23 12:55:42;;;;;;;2.53;0.82;;;18.30;43.00;;;;;;5056480;28;20061;-59
2022/11/23 12:58:21;;;;;;;2.45;1.00;;;18.30;43.00;;;;;;5038745;28;20101;-57
2022/11/23 13:01:08;;;;;;;2.35;1.20;;;18.30;43.00;;;;;;5056072;28;20036;-60
2022/11/23 13:03:37;;;;;;;1.90;0.68;;;18.30;42.90;;;;;;5038550;28;20029;-58
2022/11/23 13:06:28;;;;;;;3.03;0.80;;;18.30;42.90;;;;;;5056141;28;20497;-57